Time;durP1;ratioP1;P1;durP2;ratioP2;P2;SDS_P1;SDS_P2;PMS_P1;PMS_P2;Temp;Humidity;BMP_temperature;BMP_pressure;BME280_temperature;BME280_humidity;BME280_pressure;Samples;Min_cycle;Max_cycle;Signal;HPM_P1;HPM_P2
2024/04/06 00:02:23;;;;;;;1.90;1.70;;;14.50;99.90;;;;;;5111735;27;20035;-36
2024/04/06 00:04:49;;;;;;;2.50;1.48;;;14.50;99.90;;;;;;5105265;27;20030;-34
2024/04/06 00:07:15;;;;;;;2.42;1.90;;;14.50;99.90;;;;;;5112215;28;20490;-35
2024/04/06 00:09:40;;;;;;;2.22;1.73;;;14.40;99.90;;;;;;5114823;27;20026;-35
2024/04/06 00:12:06;;;;;;;2.10;1.70;;;14.40;99.90;;;;;;5119248;27;20035;-30
2024/04/06 00:14:32;;;;;;;2.35;2.13;;;14.30;99.90;;;;;;5117143;27;20034;-33
2024/04/06 00:16:57;;;;;;;3.67;2.13;;;14.20;99.90;;;;;;5119675;27;20027;-33
2024/04/06 00:19:26;;;;;;;2.15;1.80;;;14.20;99.90;;;;;;5118759;27;20046;-36
2024/04/06 00:21:51;;;;;;;2.47;2.05;;;14.10;99.90;;;;;;5116913;28;20027;-36
2024/04/06 00:24:17;;;;;;;2.05;1.73;;;14.10;99.90;;;;;;5120298;28;20023;-36
2024/04/06 00:26:44;;;;;;;2.50;2.00;;;14.10;99.90;;;;;;5114162;27;20019;-37
2024/04/06 00:29:09;;;;;;;3.42;1.90;;;14.10;99.90;;;;;;5106305;27;20110;-33
2024/04/06 00:31:41;;;;;;;6.10;2.50;;;14.10;99.90;;;;;;5113967;28;20091;-37
2024/04/06 00:34:07;;;;;;;2.53;2.33;;;14.10;99.90;;;;;;5117328;28;20045;-35
2024/04/06 00:36:33;;;;;;;4.45;3.25;;;14.00;99.90;;;;;;5115317;27;20505;-35
2024/04/06 00:38:59;;;;;;;3.47;3.10;;;14.00;99.90;;;;;;5119916;27;20038;-34
2024/04/06 00:41:27;;;;;;;3.92;3.13;;;14.00;99.90;;;;;;5115036;27;20035;-35
2024/04/06 00:43:53;;;;;;;3.42;2.92;;;14.00;99.90;;;;;;5116503;27;20128;-32
2024/04/06 00:46:18;;;;;;;3.05;2.78;;;14.10;99.90;;;;;;5118324;27;20545;-35
2024/04/06 00:48:46;;;;;;;3.30;2.40;;;14.10;99.90;;;;;;5123711;27;20065;-33
2024/04/06 00:51:11;;;;;;;4.80;2.50;;;14.10;99.90;;;;;;5123333;27;20136;-36
2024/04/06 00:53:37;;;;;;;2.70;2.28;;;14.10;99.90;;;;;;5123124;27;20458;-37
2024/04/06 00:56:03;;;;;;;2.45;2.08;;;14.20;99.90;;;;;;5118285;27;20130;-36
2024/04/06 00:58:32;;;;;;;2.45;1.90;;;14.20;99.90;;;;;;5122548;27;20034;-35
2024/04/06 01:00:57;;;;;;;2.35;1.90;;;14.30;99.90;;;;;;5112981;27;20470;-35
2024/04/06 01:03:23;;;;;;;2.30;2.10;;;14.30;99.90;;;;;;5112586;27;20110;-37
2024/04/06 01:05:50;;;;;;;2.30;2.05;;;14.30;99.90;;;;;;5123155;27;20023;-36
2024/04/06 01:08:15;;;;;;;2.40;1.90;;;14.40;99.90;;;;;;5123059;27;20015;-37
2024/04/06 01:10:41;;;;;;;2.47;2.15;;;14.40;99.90;;;;;;5122065;27;20023;-35
2024/04/06 01:13:06;;;;;;;2.30;1.65;;;14.40;99.90;;;;;;5119928;27;20019;-38
2024/04/06 01:15:34;;;;;;;2.25;1.70;;;14.40;99.90;;;;;;5123941;27;20039;-31
2024/04/06 01:18:03;;;;;;;2.22;1.70;;;14.40;99.90;;;;;;5117971;27;20735;-36
2024/04/06 01:20:30;;;;;;;1.90;1.55;;;14.40;99.90;;;;;;5124093;27;20103;-34
2024/04/06 01:22:56;;;;;;;2.05;1.60;;;14.40;99.90;;;;;;5114803;27;20048;-36
2024/04/06 01:25:22;;;;;;;1.42;1.17;;;14.50;99.90;;;;;;5119543;27;20817;-36
2024/04/06 01:27:47;;;;;;;1.25;1.15;;;14.50;99.90;;;;;;5118165;27;20062;-34
2024/04/06 01:30:15;;;;;;;1.67;1.40;;;14.50;99.90;;;;;;5123437;27;20497;-37
2024/04/06 01:32:51;;;;;;;1.27;1.10;;;14.50;99.90;;;;;;5118649;27;20658;-35
2024/04/06 01:35:17;;;;;;;2.35;1.35;;;14.60;99.90;;;;;;5117654;27;20039;-33
2024/04/06 01:37:46;;;;;;;1.23;1.13;;;14.60;99.90;;;;;;5119557;27;20658;-35
2024/04/06 01:40:12;;;;;;;1.27;1.00;;;14.70;99.90;;;;;;5123395;27;20027;-35
2024/04/06 01:42:38;;;;;;;1.98;1.30;;;14.70;99.90;;;;;;5119515;27;20024;-37
2024/04/06 01:45:04;;;;;;;1.58;1.17;;;14.70;99.90;;;;;;5104376;27;20042;-34
2024/04/06 01:47:30;;;;;;;2.45;1.30;;;14.70;99.90;;;;;;5120187;27;20040;-37
2024/04/06 01:50:00;;;;;;;1.25;1.13;;;14.70;99.90;;;;;;5122866;27;20019;-38
2024/04/06 01:52:25;;;;;;;2.10;1.10;;;14.70;99.90;;;;;;5111865;27;20138;-37
2024/04/06 01:54:54;;;;;;;1.75;1.10;;;14.70;99.90;;;;;;5118865;27;20759;-37
2024/04/06 01:57:19;;;;;;;2.70;1.20;;;14.70;99.90;;;;;;5121977;27;20454;-36
2024/04/06 01:59:46;;;;;;;1.20;1.00;;;14.70;99.90;;;;;;5118454;27;20027;-32
2024/04/06 02:02:12;;;;;;;1.52;1.10;;;14.70;99.90;;;;;;5123699;27;20030;-37
2024/04/06 02:04:40;;;;;;;2.28;1.13;;;14.70;99.90;;;;;;5121506;27;20064;-37
2024/04/06 02:07:12;;;;;;;1.58;1.10;;;14.70;99.90;;;;;;5120419;27;20130;-37
2024/04/06 02:09:37;;;;;;;1.45;1.25;;;14.60;99.90;;;;;;5118221;27;20692;-37
2024/04/06 02:12:03;;;;;;;1.38;1.27;;;14.70;99.90;;;;;;5119461;27;20088;-36
2024/04/06 02:14:32;;;;;;;1.42;1.08;;;14.70;99.90;;;;;;5116357;27;20165;-32
2024/04/06 02:16:59;;;;;;;1.50;1.30;;;14.60;99.90;;;;;;5123022;27;20030;-35
2024/04/06 02:19:24;;;;;;;1.60;1.10;;;14.60;99.90;;;;;;5119736;27;20055;-36
2024/04/06 02:21:50;;;;;;;1.20;1.10;;;14.70;99.90;;;;;;5122507;27;20027;-34
2024/04/06 02:24:18;;;;;;;2.00;1.02;;;14.60;99.90;;;;;;5118047;27;20024;-36
2024/04/06 02:26:44;;;;;;;1.33;1.20;;;14.60;99.90;;;;;;5110942;27;20218;-36
2024/04/06 02:29:09;;;;;;;1.40;1.02;;;14.60;99.90;;;;;;5112394;27;20469;-35
2024/04/06 02:31:36;;;;;;;1.17;1.05;;;14.60;99.90;;;;;;5121361;27;20034;-37
2024/04/06 02:34:02;;;;;;;1.17;1.08;;;14.60;99.90;;;;;;5119350;27;20027;-37
2024/04/06 02:36:28;;;;;;;1.70;0.98;;;14.60;99.90;;;;;;5120913;27;20332;-37
2024/04/06 02:38:53;;;;;;;1.20;1.10;;;14.60;99.90;;;;;;5120327;27;20665;-39
2024/04/06 02:41:19;;;;;;;1.35;1.25;;;14.60;99.90;;;;;;5118898;27;20038;-37
2024/04/06 02:43:44;;;;;;;1.73;1.20;;;14.50;99.90;;;;;;5123111;27;20059;-38
2024/04/06 02:46:10;;;;;;;2.85;1.10;;;14.50;99.90;;;;;;5121141;27;20019;-35
2024/04/06 02:48:36;;;;;;;0.93;0.85;;;14.60;99.90;;;;;;5117277;27;20836;-35
2024/04/06 02:51:02;;;;;;;1.25;1.10;;;14.60;99.90;;;;;;5113319;27;20096;-35
2024/04/06 02:53:37;;;;;;;1.00;0.90;;;14.60;99.90;;;;;;5116772;27;20035;-36
2024/04/06 02:56:03;;;;;;;1.45;1.10;;;14.60;99.90;;;;;;5118259;27;20082;-31
2024/04/06 02:58:29;;;;;;;1.25;1.15;;;14.60;99.90;;;;;;5114914;27;20608;-34
2024/04/06 03:00:54;;;;;;;1.17;1.02;;;14.60;99.90;;;;;;5119969;27;20034;-33
2024/04/06 03:03:20;;;;;;;1.70;1.05;;;14.60;99.90;;;;;;5120537;27;20023;-33
2024/04/06 03:05:47;;;;;;;2.00;1.00;;;14.60;99.90;;;;;;5116870;27;20019;-35
2024/04/06 03:08:12;;;;;;;1.50;0.98;;;14.60;99.90;;;;;;5122021;27;20034;-36
2024/04/06 03:10:38;;;;;;;0.73;0.73;;;14.60;99.90;;;;;;5115123;27;20019;-34
2024/04/06 03:13:04;;;;;;;1.63;1.25;;;14.60;99.90;;;;;;5119724;27;20110;-32
2024/04/06 03:15:29;;;;;;;1.70;1.10;;;14.60;99.90;;;;;;5121096;27;20035;-34
2024/04/06 03:17:55;;;;;;;2.15;1.10;;;14.50;99.90;;;;;;5120418;27;20058;-35
2024/04/06 03:20:23;;;;;;;1.40;1.08;;;14.50;99.90;;;;;;5119455;27;20054;-37
2024/04/06 03:23:18;;;;;;;2.22;1.52;;;14.50;99.90;;;;;;5118513;27;20564;-36
2024/04/06 03:25:44;;;;;;;0.70;0.70;;;14.50;99.90;;;;;;5111465;27;20065;-36
2024/04/06 03:28:09;;;;;;;1.55;1.20;;;14.50;99.90;;;;;;5118293;27;20462;-36
2024/04/06 03:30:35;;;;;;;1.38;0.90;;;14.40;99.90;;;;;;5119645;27;20027;-35
2024/04/06 03:33:00;;;;;;;1.15;1.00;;;14.40;99.90;;;;;;5118172;27;20492;-37
2024/04/06 03:35:26;;;;;;;1.40;0.98;;;14.30;99.90;;;;;;5119835;27;20059;-36
2024/04/06 03:37:51;;;;;;;1.25;0.90;;;14.30;99.90;;;;;;5117765;27;20102;-37
2024/04/06 03:40:17;;;;;;;1.60;1.10;;;14.20;99.90;;;;;;5121117;27;20806;-37
2024/04/06 03:42:54;;;;;;;1.50;1.10;;;14.20;99.90;;;;;;5116853;27;20030;-33
2024/04/06 03:45:19;;;;;;;1.90;1.30;;;14.20;99.90;;;;;;5111444;27;20634;-39
2024/04/06 03:47:45;;;;;;;1.33;1.10;;;14.10;99.90;;;;;;5112196;27;20016;-36
2024/04/06 03:50:11;;;;;;;1.75;0.90;;;14.10;99.90;;;;;;5120383;27;20072;-37
2024/04/06 03:52:36;;;;;;;1.35;1.00;;;14.00;99.90;;;;;;5115800;27;20080;-33
2024/04/06 03:55:02;;;;;;;1.13;1.02;;;14.00;99.90;;;;;;5119612;27;20130;-34
2024/04/06 03:57:27;;;;;;;1.27;1.00;;;14.00;99.90;;;;;;5117850;27;20023;-36
2024/04/06 03:59:53;;;;;;;1.00;1.00;;;14.00;99.90;;;;;;5119732;27;20355;-37
2024/04/06 04:02:18;;;;;;;1.10;1.00;;;13.90;99.90;;;;;;5115823;27;20811;-34
2024/04/06 04:04:44;;;;;;;1.17;1.00;;;13.90;99.90;;;;;;5114573;27;20031;-36
2024/04/06 04:07:09;;;;;;;1.00;0.93;;;13.90;99.90;;;;;;5119066;27;20151;-32
2024/04/06 04:09:35;;;;;;;1.98;0.90;;;13.90;99.90;;;;;;5111281;28;20548;-32
2024/04/06 04:12:01;;;;;;;3.47;1.35;;;13.90;99.90;;;;;;5118922;27;20735;-33
2024/04/06 04:14:27;;;;;;;2.20;1.20;;;13.80;99.90;;;;;;5115198;28;20031;-34
2024/04/06 04:16:52;;;;;;;0.98;0.90;;;13.70;99.90;;;;;;5113234;27;20031;-36
2024/04/06 04:19:20;;;;;;;1.30;1.15;;;13.60;99.90;;;;;;5116760;28;20481;-36
2024/04/06 04:21:46;;;;;;;1.40;1.30;;;13.60;99.90;;;;;;5120872;27;20119;-37
2024/04/06 04:24:11;;;;;;;3.88;2.00;;;13.60;99.90;;;;;;5120342;27;20030;-35
2024/04/06 04:26:37;;;;;;;3.15;2.38;;;13.60;99.90;;;;;;5115678;27;20107;-32
2024/04/06 04:29:04;;;;;;;2.65;2.15;;;13.50;99.90;;;;;;5121003;27;20023;-33
2024/04/06 04:31:29;;;;;;;3.05;2.22;;;13.50;99.90;;;;;;5119931;27;20032;-35
2024/04/06 04:33:55;;;;;;;4.38;2.65;;;13.60;99.90;;;;;;5118905;27;20522;-36
2024/04/06 04:36:20;;;;;;;1.92;1.60;;;13.60;99.90;;;;;;5123692;27;20035;-32
2024/04/06 04:38:46;;;;;;;2.22;1.63;;;13.60;99.90;;;;;;5122255;27;21001;-32
2024/04/06 04:41:12;;;;;;;2.90;1.85;;;13.70;99.90;;;;;;5114164;27;20159;-33
2024/04/06 04:43:38;;;;;;;2.08;1.50;;;13.70;99.90;;;;;;5120222;27;20096;-34
2024/04/06 04:46:03;;;;;;;2.33;1.70;;;13.70;99.90;;;;;;5120523;27;20039;-35
2024/04/06 04:48:51;;;;;;;4.13;2.00;;;13.70;99.90;;;;;;5123306;27;20023;-35
2024/04/06 04:51:20;;;;;;;4.10;2.10;;;13.70;99.90;;;;;;5123270;27;20023;-35
2024/04/06 04:53:45;;;;;;;2.22;1.98;;;13.70;99.90;;;;;;5122649;27;20054;-36
2024/04/06 04:56:11;;;;;;;2.25;1.88;;;13.70;99.90;;;;;;5122654;27;20031;-36
2024/04/06 04:58:36;;;;;;;2.80;2.33;;;13.70;99.90;;;;;;5117779;27;20461;-36
2024/04/06 05:01:02;;;;;;;5.25;2.88;;;13.70;99.90;;;;;;5120901;27;20031;-34
2024/04/06 05:03:28;;;;;;;3.03;2.55;;;13.70;99.90;;;;;;5120801;27;20031;-34
2024/04/06 05:05:53;;;;;;;3.42;2.00;;;13.70;99.90;;;;;;5118677;27;20516;-36
2024/04/06 05:08:19;;;;;;;4.80;2.47;;;13.80;99.90;;;;;;5108587;27;20027;-34
2024/04/06 05:10:45;;;;;;;2.78;2.10;;;13.80;99.90;;;;;;5118571;27;20051;-35
2024/04/06 05:13:10;;;;;;;4.88;2.28;;;13.80;99.90;;;;;;5118242;27;20030;-34
2024/04/06 05:15:36;;;;;;;3.20;2.42;;;13.80;99.90;;;;;;5115786;27;20043;-35
2024/04/06 05:18:02;;;;;;;4.65;2.35;;;13.80;99.90;;;;;;5119852;27;20023;-36
2024/04/06 05:20:27;;;;;;;2.65;2.13;;;13.80;99.90;;;;;;5116447;27;20054;-36
2024/04/06 05:22:53;;;;;;;2.85;2.20;;;13.90;99.90;;;;;;5121632;27;20031;-36
2024/04/06 05:25:18;;;;;;;4.78;2.67;;;13.90;99.90;;;;;;5119244;27;20483;-35
2024/04/06 05:27:44;;;;;;;4.68;2.83;;;13.90;99.90;;;;;;5124119;27;20035;-35
2024/04/06 05:30:10;;;;;;;6.25;2.88;;;13.90;99.90;;;;;;5118889;27;20156;-37
2024/04/06 05:32:35;;;;;;;5.53;3.05;;;13.90;99.90;;;;;;5120458;27;20023;-36
2024/04/06 05:35:01;;;;;;;4.40;2.63;;;14.00;99.90;;;;;;5120117;27;20037;-33
2024/04/06 05:37:29;;;;;;;3.25;2.05;;;14.00;99.90;;;;;;5121231;27;20034;-37
2024/04/06 05:39:55;;;;;;;2.05;1.77;;;14.00;99.90;;;;;;5110586;27;20035;-34
2024/04/06 05:42:20;;;;;;;1.73;1.60;;;14.00;99.90;;;;;;5121141;27;20142;-32
2024/04/06 05:44:46;;;;;;;1.83;1.67;;;14.10;99.90;;;;;;5120646;27;20593;-33
2024/04/06 05:47:12;;;;;;;2.15;1.70;;;14.10;99.90;;;;;;5120378;27;20027;-32
2024/04/06 05:49:37;;;;;;;2.03;1.52;;;14.10;99.90;;;;;;5122653;27;20031;-34
2024/04/06 05:52:03;;;;;;;3.13;1.67;;;14.20;99.90;;;;;;5112694;27;20031;-33
2024/04/06 05:54:28;;;;;;;1.52;1.40;;;14.20;99.90;;;;;;5121588;27;20023;-33
2024/04/06 05:56:54;;;;;;;2.05;1.60;;;14.20;99.90;;;;;;5115335;27;20028;-33
2024/04/06 05:59:19;;;;;;;1.63;1.35;;;14.20;99.90;;;;;;5116747;27;20032;-33
2024/04/06 06:01:45;;;;;;;2.90;1.70;;;14.20;99.90;;;;;;5117265;27;20050;-35
2024/04/06 06:04:11;;;;;;;1.90;1.50;;;14.20;99.90;;;;;;5120508;27;20031;-32
2024/04/06 06:06:37;;;;;;;3.22;2.00;;;14.10;99.90;;;;;;5119636;27;20810;-35
2024/04/06 06:09:04;;;;;;;2.58;2.20;;;14.10;99.90;;;;;;5121116;27;20106;-36
2024/04/06 06:11:30;;;;;;;3.13;1.85;;;14.10;99.90;;;;;;5119099;27;20031;-35
2024/04/06 06:13:56;;;;;;;2.58;2.17;;;14.20;99.90;;;;;;5111203;27;20035;-37
2024/04/06 06:16:21;;;;;;;2.10;1.83;;;14.20;99.90;;;;;;5121769;27;20035;-33
2024/04/06 06:18:47;;;;;;;4.82;1.80;;;14.20;99.90;;;;;;5112565;27;20042;-33
2024/04/06 06:21:15;;;;;;;3.28;1.70;;;14.30;99.90;;;;;;5121501;27;20023;-31
2024/04/06 06:23:41;;;;;;;1.60;1.40;;;14.30;99.90;;;;;;5120558;27;20055;-36
2024/04/06 06:26:07;;;;;;;3.20;1.60;;;14.30;99.90;;;;;;5120925;27;20709;-33
2024/04/06 06:28:32;;;;;;;2.10;1.65;;;14.40;99.90;;;;;;5116691;27;20783;-36
2024/04/06 06:30:59;;;;;;;2.00;1.40;;;14.40;99.90;;;;;;5120470;27;20689;-36
2024/04/06 06:33:26;;;;;;;2.40;1.95;;;14.40;99.90;;;;;;5118190;27;20101;-33
2024/04/06 06:35:53;;;;;;;1.60;1.50;;;14.40;99.90;;;;;;5121300;27;20042;-37
2024/04/06 06:38:18;;;;;;;2.40;1.50;;;14.40;99.90;;;;;;5119407;27;20382;-34
2024/04/06 06:40:45;;;;;;;1.90;1.33;;;14.40;99.90;;;;;;5121376;27;20043;-36
2024/04/06 06:43:11;;;;;;;1.75;1.33;;;14.50;99.90;;;;;;5118708;27;20024;-35
2024/04/06 06:45:37;;;;;;;1.70;1.60;;;14.60;99.90;;;;;;5120187;27;20050;-35
2024/04/06 06:48:03;;;;;;;1.25;1.13;;;14.60;99.90;;;;;;5119680;27;20473;-37
2024/04/06 06:50:29;;;;;;;1.48;1.20;;;14.70;99.90;;;;;;5120990;27;20114;-36
2024/04/06 06:52:54;;;;;;;1.42;1.33;;;14.80;99.90;;;;;;5118721;27;20035;-36
2024/04/06 06:55:20;;;;;;;1.67;1.38;;;14.90;99.90;;;;;;5113217;27;20146;-37
2024/04/06 06:57:47;;;;;;;1.20;1.10;;;15.00;99.90;;;;;;5117500;27;20120;-37
2024/04/06 07:00:14;;;;;;;1.73;1.27;;;15.00;99.90;;;;;;5119579;27;20649;-36
2024/04/06 07:02:42;;;;;;;1.65;1.40;;;15.10;99.90;;;;;;5120115;27;20023;-35
2024/04/06 07:05:08;;;;;;;1.42;1.30;;;15.10;99.90;;;;;;5117533;27;20774;-36
2024/04/06 07:07:34;;;;;;;1.83;1.23;;;15.00;99.90;;;;;;5117935;27;20027;-36
2024/04/06 07:10:00;;;;;;;2.05;1.20;;;15.10;99.90;;;;;;5115440;27;20023;-36
2024/04/06 07:12:26;;;;;;;1.55;1.40;;;15.10;99.90;;;;;;5102046;28;20030;-37
2024/04/06 07:14:52;;;;;;;1.63;1.10;;;15.20;99.90;;;;;;5113282;27;20512;-35
2024/04/06 07:17:18;;;;;;;1.27;1.08;;;15.20;99.90;;;;;;5106294;27;20186;-38
2024/04/06 07:19:43;;;;;;;2.38;1.10;;;15.30;99.90;;;;;;5115549;27;20782;-37
2024/04/06 07:22:09;;;;;;;1.95;1.20;;;15.30;99.90;;;;;;5120298;27;20023;-38
2024/04/06 07:24:35;;;;;;;1.27;1.17;;;15.40;99.90;;;;;;5119180;27;20054;-33
2024/04/06 07:27:01;;;;;;;3.10;1.17;;;15.40;99.90;;;;;;5119563;27;20088;-37
2024/04/06 07:29:26;;;;;;;1.52;1.15;;;15.50;99.90;;;;;;5114627;27;20024;-36
2024/04/06 07:31:52;;;;;;;2.05;1.20;;;15.60;99.90;;;;;;5114647;27;20031;-35
2024/04/06 07:34:18;;;;;;;2.45;1.15;;;15.70;99.90;;;;;;5120789;27;20580;-36
2024/04/06 07:36:43;;;;;;;2.78;1.30;;;15.70;99.90;;;;;;5109849;27;20035;-33
2024/04/06 07:39:09;;;;;;;1.70;1.10;;;15.80;99.90;;;;;;5118760;27;20095;-37
2024/04/06 07:41:35;;;;;;;1.73;1.10;;;15.90;99.90;;;;;;5117170;27;20133;-36
2024/04/06 07:44:03;;;;;;;2.67;1.13;;;15.90;99.90;;;;;;5117382;27;20474;-36
2024/04/06 07:46:28;;;;;;;0.90;0.90;;;16.00;99.90;;;;;;5118454;27;20019;-36
2024/04/06 07:48:54;;;;;;;1.52;1.23;;;16.00;99.90;;;;;;5120418;27;20045;-37
2024/04/06 07:51:19;;;;;;;0.82;0.82;;;16.10;99.90;;;;;;5115874;27;20035;-37
2024/04/06 07:53:45;;;;;;;3.33;1.20;;;16.20;99.90;;;;;;5120996;27;20824;-37
2024/04/06 07:56:11;;;;;;;2.25;1.00;;;16.20;99.90;;;;;;5118786;27;20081;-37
2024/04/06 07:58:39;;;;;;;2.53;1.10;;;16.30;99.90;;;;;;5111966;27;20613;-36
2024/04/06 08:01:05;;;;;;;2.45;1.35;;;16.30;99.90;;;;;;5115502;27;20131;-37
2024/04/06 08:03:31;;;;;;;2.08;1.20;;;16.40;99.90;;;;;;5119164;27;20023;-34
2024/04/06 08:05:59;;;;;;;1.20;0.90;;;16.40;99.90;;;;;;5116042;27;20023;-37
2024/04/06 08:08:25;;;;;;;1.45;1.10;;;16.50;99.90;;;;;;5117467;27;20473;-36
2024/04/06 08:10:51;;;;;;;0.90;0.70;;;16.50;99.90;;;;;;5114638;27;20030;-37
2024/04/06 08:13:17;;;;;;;1.20;0.90;;;16.60;99.90;;;;;;5119237;28;20023;-33
2024/04/06 08:15:42;;;;;;;2.03;1.20;;;16.60;99.90;;;;;;5118827;27;20035;-37
2024/04/06 08:18:11;;;;;;;1.42;0.90;;;16.60;99.90;;;;;;5118980;28;20468;-36
2024/04/06 08:20:36;;;;;;;1.02;0.90;;;16.70;99.90;;;;;;5116036;28;20054;-36
2024/04/06 08:23:02;;;;;;;2.58;1.20;;;16.80;99.90;;;;;;5118280;28;20019;-35
2024/04/06 08:25:28;;;;;;;1.88;1.00;;;16.80;99.90;;;;;;5117059;28;20151;-36
2024/04/06 08:27:53;;;;;;;1.08;0.98;;;16.90;99.90;;;;;;5116851;28;20023;-33
2024/04/06 08:30:19;;;;;;;1.48;0.90;;;17.00;99.90;;;;;;5118786;27;20066;-36
2024/04/06 08:32:45;;;;;;;1.30;1.00;;;17.10;99.90;;;;;;5113916;28;20024;-36
2024/04/06 08:35:17;;;;;;;2.47;1.10;;;17.10;99.90;;;;;;5118947;28;20050;-35
2024/04/06 08:37:42;;;;;;;1.30;0.90;;;17.20;99.90;;;;;;5118450;27;20068;-37
2024/04/06 08:40:12;;;;;;;3.05;1.58;;;17.30;99.90;;;;;;5116616;27;20296;-35
2024/04/06 08:42:44;;;;;;;1.55;1.00;;;17.30;99.90;;;;;;5114962;28;20027;-37
2024/04/06 08:45:11;;;;;;;1.10;1.00;;;17.40;99.90;;;;;;5116789;28;20692;-36
2024/04/06 08:47:37;;;;;;;1.52;0.98;;;17.50;99.90;;;;;;5117788;27;20276;-38
2024/04/06 08:50:07;;;;;;;1.00;0.88;;;17.60;99.90;;;;;;5116185;28;20034;-34
2024/04/06 08:52:39;;;;;;;1.80;1.08;;;17.70;99.90;;;;;;5120438;27;20510;-37
2024/04/06 08:55:07;;;;;;;1.35;1.00;;;17.70;99.90;;;;;;5120707;27;20130;-40
2024/04/06 08:57:37;;;;;;;2.80;1.10;;;17.80;99.90;;;;;;5119924;27;20059;-34
2024/04/06 09:00:07;;;;;;;2.80;1.13;;;17.80;99.90;;;;;;5120407;27;20556;-38
2024/04/06 09:02:36;;;;;;;1.83;1.20;;;17.90;99.90;;;;;;5111802;28;20854;-34
2024/04/06 09:05:03;;;;;;;3.15;1.20;;;18.00;99.90;;;;;;5119249;27;20032;-35
2024/04/06 09:07:29;;;;;;;1.27;1.08;;;18.10;99.90;;;;;;5117128;27;20023;-37
2024/04/06 09:09:55;;;;;;;1.25;1.00;;;18.20;99.90;;;;;;5116247;27;20054;-34
2024/04/06 09:12:21;;;;;;;1.20;1.00;;;18.30;99.90;;;;;;5120836;27;20146;-34
2024/04/06 09:14:47;;;;;;;1.77;0.85;;;18.30;99.90;;;;;;5120766;27;20036;-36
2024/04/06 09:17:14;;;;;;;1.10;1.00;;;18.30;99.90;;;;;;5123412;27;20031;-35
2024/04/06 09:19:41;;;;;;;0.98;0.90;;;18.30;99.90;;;;;;5120036;27;20039;-36
2024/04/06 09:22:07;;;;;;;1.45;1.05;;;18.40;99.90;;;;;;5118257;27;20027;-35
2024/04/06 09:24:37;;;;;;;2.15;1.15;;;18.40;99.90;;;;;;5120056;27;20027;-38
2024/04/06 09:27:09;;;;;;;0.93;0.75;;;18.50;99.90;;;;;;5122695;27;20549;-36
2024/04/06 09:29:35;;;;;;;1.40;1.08;;;18.60;99.90;;;;;;5118877;27;20046;-37
2024/04/06 09:32:03;;;;;;;0.95;0.85;;;18.60;99.90;;;;;;5103473;28;20122;-36
2024/04/06 09:34:29;;;;;;;1.27;1.08;;;18.80;99.90;;;;;;5114433;27;20030;-35
2024/04/06 09:37:02;;;;;;;2.00;1.02;;;18.90;99.90;;;;;;5104848;27;20059;-38
2024/04/06 09:39:33;;;;;;;2.33;1.05;;;19.00;99.90;;;;;;5113703;27;20035;-38
2024/04/06 09:42:00;;;;;;;2.38;1.15;;;19.10;99.90;;;;;;5106833;27;20024;-38
2024/04/06 09:44:27;;;;;;;2.13;1.15;;;19.30;99.90;;;;;;5111208;27;20023;-35
2024/04/06 09:46:53;;;;;;;0.95;0.90;;;19.40;99.90;;;;;;5106937;27;20419;-37
2024/04/06 09:49:24;;;;;;;1.67;1.02;;;19.50;99.90;;;;;;5109417;27;20022;-38
2024/04/06 09:51:53;;;;;;;1.23;0.98;;;19.60;99.90;;;;;;5111030;27;20053;-36
2024/04/06 09:54:20;;;;;;;1.17;0.88;;;19.70;99.90;;;;;;5107585;27;20084;-34
2024/04/06 09:56:47;;;;;;;2.92;1.10;;;19.80;99.90;;;;;;5113024;27;20052;-35
2024/04/06 09:59:23;;;;;;;1.95;0.93;;;19.90;99.90;;;;;;5105285;27;20085;-37
2024/04/06 10:01:52;;;;;;;1.02;0.82;;;20.00;99.90;;;;;;5114397;27;20050;-37
2024/04/06 10:04:35;;;;;;;0.98;0.90;;;20.00;99.90;;;;;;5120102;27;20364;-36
2024/04/06 10:07:03;;;;;;;0.70;0.70;;;20.20;99.90;;;;;;5113836;27;20396;-38
2024/04/06 10:09:30;;;;;;;0.98;0.82;;;20.20;99.90;;;;;;5120714;27;20044;-38
2024/04/06 10:12:06;;;;;;;3.85;1.00;;;20.30;99.90;;;;;;5114302;27;20024;-37
2024/04/06 10:14:32;;;;;;;1.35;0.80;;;20.40;99.90;;;;;;5105277;27;20038;-36
2024/04/06 10:17:08;;;;;;;1.98;1.13;;;20.40;99.90;;;;;;5114777;27;20035;-36
2024/04/06 10:19:40;;;;;;;1.80;0.80;;;20.40;99.90;;;;;;5104407;27;20170;-37
2024/04/06 10:22:07;;;;;;;1.58;0.80;;;20.50;99.90;;;;;;5114539;27;20068;-37
2024/04/06 10:24:35;;;;;;;1.52;1.10;;;20.60;99.90;;;;;;5103912;27;20107;-35
2024/04/06 10:27:02;;;;;;;1.95;0.95;;;20.60;99.90;;;;;;5114193;27;20019;-38
2024/04/06 10:29:29;;;;;;;1.00;0.90;;;20.60;99.90;;;;;;5103257;28;20461;-38
2024/04/06 10:31:55;;;;;;;1.00;0.80;;;20.70;99.90;;;;;;5113401;27;20080;-36
2024/04/06 10:34:21;;;;;;;1.58;1.05;;;20.60;99.90;;;;;;5102975;28;20020;-38
2024/04/06 10:36:47;;;;;;;1.05;0.82;;;20.70;99.90;;;;;;5115739;27;20122;-35
2024/04/06 10:39:16;;;;;;;1.88;0.90;;;20.70;99.90;;;;;;5101855;27;20556;-33
2024/04/06 10:41:43;;;;;;;0.80;0.70;;;20.80;99.90;;;;;;5113030;27;20023;-37
2024/04/06 10:44:12;;;;;;;1.23;0.90;;;20.80;99.90;;;;;;5104321;27;20020;-33
2024/04/06 10:46:42;;;;;;;1.90;1.00;;;20.90;99.90;;;;;;5108979;27;20030;-38
2024/04/06 10:49:11;;;;;;;2.53;1.02;;;21.00;99.90;;;;;;5119175;27;20034;-33
2024/04/06 10:51:37;;;;;;;1.55;1.00;;;21.10;99.90;;;;;;5116226;27;20062;-36
2024/04/06 10:54:03;;;;;;;1.13;0.93;;;21.10;99.90;;;;;;5116213;27;20023;-36
2024/04/06 10:56:29;;;;;;;1.45;0.95;;;21.10;99.90;;;;;;5119142;27;20402;-38
2024/04/06 10:58:55;;;;;;;4.60;0.93;;;21.20;99.90;;;;;;5114598;27;20035;-38
2024/04/06 11:01:26;;;;;;;1.52;1.00;;;21.30;99.90;;;;;;5120425;27;20029;-37
2024/04/06 11:03:52;;;;;;;1.13;0.93;;;21.30;99.90;;;;;;5112780;27;20038;-37
2024/04/06 11:06:17;;;;;;;2.63;0.98;;;21.40;99.90;;;;;;5120868;27;20015;-38
2024/04/06 11:08:43;;;;;;;1.35;0.98;;;21.50;99.90;;;;;;5110983;27;20031;-37
2024/04/06 11:11:09;;;;;;;1.42;0.90;;;21.50;99.90;;;;;;5121639;27;20034;-35
2024/04/06 11:13:39;;;;;;;2.33;1.00;;;21.50;99.90;;;;;;5111367;27;20465;-37
2024/04/06 11:16:10;;;;;;;1.33;0.93;;;21.50;99.90;;;;;;5121704;27;20494;-35
2024/04/06 11:18:46;;;;;;;1.07;0.90;;;21.60;99.90;;;;;;5110013;27;20101;-38
2024/04/06 11:21:13;;;;;;;2.13;1.23;;;21.70;99.90;;;;;;5122065;27;20088;-35
2024/04/06 11:23:40;;;;;;;1.45;0.90;;;21.70;99.90;;;;;;5109885;27;20099;-38
2024/04/06 11:26:07;;;;;;;1.00;0.90;;;21.70;99.90;;;;;;5122243;27;20074;-38
2024/04/06 11:28:33;;;;;;;1.10;0.85;;;21.80;99.90;;;;;;5108805;27;20197;-38
2024/04/06 11:31:00;;;;;;;1.75;1.00;;;21.90;99.90;;;;;;5120994;27;20031;-38
2024/04/06 11:33:26;;;;;;;1.08;0.80;;;21.90;99.90;;;;;;5111077;27;20443;-35
2024/04/06 11:35:56;;;;;;;0.80;0.80;;;22.00;99.90;;;;;;5119014;27;20486;-38
2024/04/06 11:38:21;;;;;;;1.38;0.77;;;22.00;99.90;;;;;;5113044;27;20029;-37
2024/04/06 11:40:47;;;;;;;0.80;0.80;;;22.10;99.90;;;;;;5118295;27;20072;-39
2024/04/06 11:43:16;;;;;;;1.70;0.80;;;22.10;99.90;;;;;;5115126;27;20019;-35
2024/04/06 11:45:42;;;;;;;1.35;0.77;;;22.20;99.90;;;;;;5109608;27;20743;-38
2024/04/06 11:48:10;;;;;;;0.98;0.80;;;22.20;99.90;;;;;;5104350;27;20031;-37
2024/04/06 11:50:36;;;;;;;1.58;1.00;;;22.20;99.90;;;;;;5109904;27;20354;-36
2024/04/06 11:53:01;;;;;;;1.67;0.90;;;22.20;99.90;;;;;;5102639;28;20016;-36
2024/04/06 11:55:27;;;;;;;0.70;0.70;;;22.20;99.90;;;;;;5112695;27;20470;-39
2024/04/06 11:57:55;;;;;;;1.10;0.80;;;22.30;99.90;;;;;;5102469;28;20026;-34
2024/04/06 12:00:21;;;;;;;1.15;1.05;;;22.30;99.90;;;;;;5113003;27;20116;-38
2024/04/06 12:02:46;;;;;;;1.30;0.90;;;22.40;99.90;;;;;;5101436;28;20114;-36
2024/04/06 12:05:12;;;;;;;1.33;0.93;;;22.50;99.90;;;;;;5112695;27;20020;-35
2024/04/06 12:07:38;;;;;;;2.85;1.10;;;22.50;99.90;;;;;;5101315;28;20128;-37
2024/04/06 12:10:05;;;;;;;0.98;0.82;;;22.70;99.90;;;;;;5113628;27;20023;-38
2024/04/06 12:12:31;;;;;;;0.98;0.80;;;22.80;99.90;;;;;;5100921;28;20062;-33
2024/04/06 12:14:57;;;;;;;1.33;1.10;;;22.90;99.90;;;;;;5112528;28;20107;-37
2024/04/06 12:17:27;;;;;;;1.70;0.90;;;22.90;99.90;;;;;;5101113;27;20804;-38
2024/04/06 12:19:54;;;;;;;0.88;0.70;;;23.00;99.90;;;;;;5110208;28;20055;-40
2024/04/06 12:22:26;;;;;;;1.30;0.80;;;23.10;99.90;;;;;;5103757;27;20774;-37
2024/04/06 12:24:52;;;;;;;1.95;0.90;;;23.20;99.90;;;;;;5108505;28;20027;-37
2024/04/06 12:27:18;;;;;;;1.00;0.77;;;23.30;99.90;;;;;;5105376;28;20403;-37
2024/04/06 12:29:44;;;;;;;1.00;0.80;;;23.40;99.90;;;;;;5106638;28;20027;-35
2024/04/06 12:32:13;;;;;;;0.93;0.63;;;23.50;99.90;;;;;;5107348;27;20096;-36
2024/04/06 12:34:39;;;;;;;1.02;0.70;;;23.60;99.90;;;;;;5104952;28;20400;-38
2024/04/06 12:37:13;;;;;;;1.90;0.70;;;23.70;99.90;;;;;;5110096;28;20521;-37
2024/04/06 12:39:42;;;;;;;1.02;0.70;;;23.80;99.90;;;;;;5102402;28;20789;-37
2024/04/06 12:42:11;;;;;;;2.42;0.70;;;23.80;99.90;;;;;;5111393;27;20076;-38
2024/04/06 12:44:36;;;;;;;1.40;0.63;;;23.80;99.90;;;;;;5107404;27;20126;-39
2024/04/06 12:47:02;;;;;;;0.77;0.73;;;23.80;99.90;;;;;;5106549;27;20072;-36